createdAt,value
2017-12-19T00:00:40.716Z,23.70
2017-12-19T00:03:09.029Z,23.27
2017-12-19T00:05:36.545Z,24.40
2017-12-19T00:08:04.088Z,23.10
2017-12-19T00:10:31.592Z,24.23
2017-12-19T00:12:59.174Z,24.37
2017-12-19T00:15:26.691Z,25.63
2017-12-19T00:17:54.258Z,25.80
2017-12-19T00:20:21.780Z,26.70
2017-12-19T00:22:49.324Z,25.27
2017-12-19T00:25:16.845Z,23.33
2017-12-19T00:27:44.405Z,24.00
2017-12-19T00:30:11.923Z,24.03
2017-12-19T00:32:39.433Z,23.80
2017-12-19T00:35:06.980Z,22.37
2017-12-19T00:37:34.496Z,23.10
2017-12-19T00:40:02.048Z,23.63
2017-12-19T00:42:29.560Z,24.20
2017-12-19T00:44:57.875Z,23.83
2017-12-19T00:47:25.384Z,22.70
2017-12-19T00:49:52.923Z,24.77
2017-12-19T00:52:20.440Z,25.43
2017-12-19T00:54:47.991Z,24.47
2017-12-19T00:57:15.504Z,24.90
2017-12-19T00:59:44.096Z,23.17
2017-12-19T01:02:12.372Z,24.30
2017-12-19T01:04:39.883Z,26.23
2017-12-19T01:07:07.423Z,27.43
2017-12-19T01:09:34.933Z,25.63
2017-12-19T01:12:03.389Z,27.00
2017-12-19T01:14:31.672Z,25.17
2017-12-19T01:16:59.224Z,26.70
2017-12-19T01:19:26.736Z,26.13
2017-12-19T01:24:43.724Z,26.30
2017-12-19T01:27:11.590Z,26.47
2017-12-19T01:29:39.103Z,26.00
2017-12-19T01:32:06.608Z,25.67
2017-12-19T01:34:34.220Z,25.77
2017-12-19T01:37:01.737Z,24.13
2017-12-19T01:39:29.286Z,23.73
2017-12-19T01:41:56.797Z,23.27
2017-12-19T01:44:25.108Z,24.50
2017-12-19T01:46:52.615Z,25.23
2017-12-19T01:49:20.164Z,26.30
2017-12-19T01:51:47.676Z,24.30
2017-12-19T01:54:15.224Z,26.73
2017-12-19T01:56:42.728Z,25.43
2017-12-19T01:59:10.272Z,24.73
2017-12-19T02:01:37.788Z,26.10
2017-12-19T02:04:06.108Z,26.30
2017-12-19T02:06:33.651Z,26.73
2017-12-19T02:09:01.160Z,26.47
2017-12-19T02:11:28.710Z,28.07
2017-12-19T02:13:56.984Z,29.63
2017-12-19T02:16:25.304Z,28.93
2017-12-19T02:18:52.811Z,27.40
2017-12-19T02:21:20.359Z,28.17
2017-12-19T02:26:38.572Z,28.37
2017-12-19T02:29:06.080Z,29.87
2017-12-19T02:31:33.640Z,29.40
2017-12-19T02:34:01.155Z,29.17
2017-12-19T02:36:28.677Z,30.40
2017-12-19T02:38:56.228Z,28.97
2017-12-19T02:41:23.732Z,29.67
2017-12-19T02:43:51.296Z,29.43
2017-12-19T02:46:18.812Z,30.33
2017-12-19T02:48:47.653Z,30.00
2017-12-19T02:51:15.149Z,30.50
2017-12-19T02:53:42.689Z,30.27
2017-12-19T02:56:10.213Z,30.80
2017-12-19T02:58:37.767Z,32.70
2017-12-19T03:01:05.276Z,30.80
2017-12-19T03:06:06.848Z,30.97
2017-12-19T03:08:35.133Z,31.70
2017-12-19T03:11:05.357Z,30.13
2017-12-19T03:13:32.903Z,34.57
2017-12-19T03:16:00.441Z,32.83
2017-12-19T03:18:27.953Z,33.67
2017-12-19T03:20:55.500Z,33.57
2017-12-19T03:23:23.019Z,37.10
2017-12-19T03:25:50.596Z,35.80
2017-12-19T03:28:18.108Z,36.30
2017-12-19T03:30:45.661Z,36.57
2017-12-19T03:33:13.228Z,35.90
2017-12-19T03:35:41.512Z,37.70
2017-12-19T03:38:09.827Z,35.53
2017-12-19T03:40:37.343Z,35.37
2017-12-19T03:43:04.908Z,37.00
2017-12-19T03:45:32.427Z,34.50
2017-12-19T03:48:00.707Z,37.07
2017-12-19T03:50:29.020Z,35.17
2017-12-19T03:52:56.542Z,36.50
2017-12-19T03:55:24.108Z,35.97
2017-12-19T03:57:51.632Z,35.27
2017-12-19T04:00:19.660Z,37.63
2017-12-19T04:02:47.176Z,34.50
2017-12-19T04:05:15.493Z,37.87
2017-12-19T04:07:43.016Z,35.53
2017-12-19T04:10:10.583Z,35.07
2017-12-19T04:12:38.100Z,34.50
2017-12-19T04:15:05.608Z,34.70
2017-12-19T04:17:33.152Z,34.50
2017-12-19T04:20:00.667Z,32.43
2017-12-19T04:22:28.216Z,33.93
2017-12-19T04:24:55.723Z,29.67
2017-12-19T04:27:23.271Z,33.77
2017-12-19T04:29:50.788Z,36.07
2017-12-19T04:32:18.335Z,33.33
2017-12-19T04:34:46.623Z,37.00
2017-12-19T04:37:14.171Z,34.73
2017-12-19T04:39:41.687Z,35.27
2017-12-19T04:42:09.347Z,36.87
2017-12-19T04:44:37.626Z,35.90
2017-12-19T04:47:05.143Z,37.20
2017-12-19T04:49:32.688Z,33.27
2017-12-19T04:52:00.963Z,34.07
2017-12-19T04:54:28.512Z,32.70
2017-12-19T04:56:56.025Z,32.07
2017-12-19T04:59:23.579Z,32.00
2017-12-19T05:01:51.088Z,34.37
2017-12-19T05:04:18.656Z,32.77
2017-12-19T05:06:46.181Z,35.07
2017-12-19T05:09:13.708Z,36.37
2017-12-19T05:11:41.257Z,31.90
2017-12-19T05:14:09.533Z,35.00
2017-12-19T05:16:37.072Z,35.97
2017-12-19T05:19:04.579Z,37.70
2017-12-19T05:21:32.896Z,34.90
2017-12-19T05:24:00.416Z,32.93
2017-12-19T05:26:28.004Z,34.77
2017-12-19T05:28:55.552Z,34.17
2017-12-19T05:31:23.069Z,33.37
2017-12-19T05:33:50.684Z,33.57
2017-12-19T05:36:18.159Z,30.70
2017-12-19T05:38:45.716Z,37.07
2017-12-19T05:41:13.231Z,32.67
2017-12-19T05:43:40.795Z,33.63
2017-12-19T05:46:08.319Z,34.30
2017-12-19T05:48:35.900Z,31.57
2017-12-19T05:51:03.408Z,30.13
2017-12-19T05:53:30.912Z,31.40
2017-12-19T05:55:59.237Z,30.60
2017-12-19T05:58:26.748Z,29.30
2017-12-19T06:00:54.306Z,30.90
2017-12-19T06:03:21.824Z,29.90
2017-12-19T06:05:50.156Z,28.83
2017-12-19T06:08:17.724Z,29.47
2017-12-19T06:10:45.280Z,28.87
2017-12-19T06:13:12.804Z,28.10
2017-12-19T06:15:40.384Z,29.50
2017-12-19T06:18:07.916Z,27.17
2017-12-19T06:20:35.500Z,27.77
2017-12-19T06:23:03.024Z,32.13
2017-12-19T06:25:30.539Z,28.10
2017-12-19T06:27:58.083Z,28.97
2017-12-19T06:30:25.606Z,28.87
2017-12-19T06:32:53.164Z,32.43
2017-12-19T06:35:20.692Z,29.57
2017-12-19T06:37:48.244Z,31.67
2017-12-19T06:40:16.540Z,31.10
2017-12-19T06:42:44.092Z,29.53
2017-12-19T06:45:11.667Z,28.90
2017-12-19T06:47:39.255Z,27.67
2017-12-19T06:50:07.547Z,30.20
2017-12-19T06:52:35.824Z,29.43
2017-12-19T06:55:03.398Z,29.43
2017-12-19T06:57:30.908Z,29.80
2017-12-19T06:59:58.472Z,29.97
2017-12-19T07:02:25.996Z,31.50
2017-12-19T07:04:53.540Z,30.90
2017-12-19T07:07:21.066Z,31.60
2017-12-19T07:09:49.509Z,31.17
2017-12-19T07:12:17.064Z,28.73
2017-12-19T07:14:44.660Z,28.80
2017-12-19T07:17:12.175Z,29.87
2017-12-19T07:19:40.459Z,27.63
2017-12-19T07:22:08.788Z,28.17
2017-12-19T07:24:36.310Z,28.90
2017-12-19T07:27:03.876Z,28.77
2017-12-19T07:29:31.396Z,27.93
2017-12-19T07:31:58.948Z,27.20
2017-12-19T07:34:27.239Z,30.53
2017-12-19T07:36:55.564Z,29.90
2017-12-19T07:39:23.088Z,28.70
2017-12-19T07:41:50.811Z,27.07
2017-12-19T07:44:18.321Z,26.77
2017-12-19T07:46:45.828Z,27.60
2017-12-19T07:49:13.368Z,26.83
2017-12-19T07:51:40.879Z,28.40
2017-12-19T07:54:08.425Z,29.27
2017-12-19T07:56:36.707Z,33.37
2017-12-19T07:59:04.257Z,29.30
2017-12-19T08:01:31.771Z,31.13
2017-12-19T08:04:00.087Z,29.40
2017-12-19T08:06:27.608Z,32.00
2017-12-19T08:08:55.951Z,29.20
2017-12-19T08:11:23.466Z,30.00
2017-12-19T08:13:50.979Z,33.73
2017-12-19T08:16:18.529Z,32.37
2017-12-19T08:18:46.051Z,33.60
2017-12-19T08:21:13.596Z,34.30
2017-12-19T08:23:41.108Z,34.00
2017-12-19T08:26:08.663Z,33.47
2017-12-19T08:28:36.277Z,32.17
2017-12-19T08:31:03.835Z,33.17
2017-12-19T08:33:31.353Z,37.73
2017-12-19T08:35:58.915Z,36.90
2017-12-19T08:38:27.195Z,35.67
2017-12-19T08:40:55.520Z,33.50
2017-12-19T08:43:23.056Z,32.80
2017-12-19T08:45:51.378Z,33.10
2017-12-19T08:48:18.896Z,32.00
2017-12-19T08:50:46.465Z,30.67
2017-12-19T08:53:13.981Z,30.37
2017-12-19T08:55:41.519Z,31.20
2017-12-19T08:58:09.084Z,30.60
2017-12-19T09:00:36.608Z,30.97
2017-12-19T09:03:04.168Z,30.30
2017-12-19T09:05:31.736Z,28.07
2017-12-19T09:08:00.231Z,29.33
2017-12-19T09:10:28.518Z,28.90
2017-12-19T09:12:56.860Z,31.33
2017-12-19T09:15:25.404Z,29.30
2017-12-19T09:17:52.940Z,28.80
2017-12-19T09:20:31.681Z,28.00
2017-12-19T09:22:59.987Z,30.63
2017-12-19T09:25:28.316Z,29.80
2017-12-19T09:27:55.831Z,28.90
2017-12-19T09:30:23.429Z,27.73
2017-12-19T09:32:51.730Z,26.83
2017-12-19T09:35:20.060Z,26.57
2017-12-19T09:37:47.627Z,28.30
2017-12-19T09:40:15.182Z,26.93
2017-12-19T09:42:42.702Z,27.77
2017-12-19T09:45:10.261Z,27.23
2017-12-19T09:47:37.786Z,24.57
2017-12-19T09:50:05.351Z,25.77
2017-12-19T09:52:33.624Z,26.40
2017-12-19T09:55:02.862Z,24.47
2017-12-19T09:57:30.384Z,24.73
2017-12-19T09:59:57.901Z,25.37
2017-12-19T10:02:25.447Z,23.03
2017-12-19T10:04:52.956Z,25.30
2017-12-19T10:07:20.503Z,23.03
2017-12-19T10:09:48.771Z,26.77
2017-12-19T10:12:16.341Z,25.73
2017-12-19T10:14:43.876Z,25.70
2017-12-19T10:17:11.447Z,31.05
2017-12-19T10:19:38.961Z,25.50
2017-12-19T10:22:06.523Z,25.57
2017-12-19T10:24:34.035Z,26.27
2017-12-19T10:27:01.781Z,24.70
2017-12-19T10:29:29.304Z,33.40
2017-12-19T10:31:56.828Z,33.20
2017-12-19T10:34:24.384Z,33.77
2017-12-19T10:36:51.991Z,35.37
2017-12-19T10:39:20.312Z,29.83
2017-12-19T10:41:48.767Z,30.83
2017-12-19T10:44:17.109Z,29.90
2017-12-19T10:46:44.627Z,28.93
2017-12-19T10:49:12.943Z,27.90
2017-12-19T10:51:40.542Z,27.33
2017-12-19T10:54:09.941Z,27.23
2017-12-19T10:56:37.478Z,26.50
2017-12-19T10:59:05.047Z,27.70
2017-12-19T11:01:32.562Z,27.13
2017-12-19T11:04:00.086Z,25.77
2017-12-19T11:06:27.655Z,27.77
2017-12-19T11:08:55.155Z,27.20
2017-12-19T11:11:23.468Z,26.80
2017-12-19T11:13:50.981Z,27.43
2017-12-19T11:16:18.520Z,26.93
2017-12-19T11:18:47.380Z,26.43
2017-12-19T11:21:15.692Z,29.00
2017-12-19T11:23:43.223Z,26.20
2017-12-19T11:26:10.791Z,26.40
2017-12-19T11:28:38.321Z,26.37
2017-12-19T11:31:05.884Z,27.10
2017-12-19T11:33:33.535Z,28.00
2017-12-19T11:36:01.812Z,28.07
2017-12-19T11:38:29.370Z,29.70
2017-12-19T11:40:56.899Z,29.27
2017-12-19T11:43:24.456Z,27.90
2017-12-19T11:45:52.000Z,33.30
2017-12-19T11:48:19.604Z,32.07
2017-12-19T11:50:47.672Z,31.53
2017-12-19T11:53:16.013Z,30.10
2017-12-19T11:55:43.531Z,29.60
2017-12-19T11:58:11.124Z,31.27
2017-12-19T12:00:38.646Z,31.87
2017-12-19T12:03:07.787Z,28.80
2017-12-19T12:05:35.340Z,30.13
2017-12-19T12:08:02.863Z,29.20
2017-12-19T12:10:30.425Z,28.53
2017-12-19T12:12:57.953Z,30.53
2017-12-19T12:15:25.517Z,30.37
2017-12-19T12:17:53.028Z,34.00
2017-12-19T12:20:21.352Z,32.70
2017-12-19T12:22:48.886Z,31.50
2017-12-19T12:25:17.224Z,31.67
2017-12-19T12:27:44.740Z,29.67
2017-12-19T12:30:13.023Z,29.20
2017-12-19T12:32:40.574Z,28.67
2017-12-19T12:35:08.101Z,27.67
2017-12-19T12:37:35.670Z,28.60
2017-12-19T12:40:03.197Z,27.13
2017-12-19T12:42:30.853Z,30.40
2017-12-19T12:44:58.367Z,30.20
2017-12-19T12:47:28.693Z,32.38
2017-12-19T12:49:56.248Z,31.90
2017-12-19T12:52:23.974Z,27.93
2017-12-19T12:54:51.508Z,33.00
2017-12-19T12:57:19.195Z,33.30
2017-12-19T12:59:46.759Z,30.43
2017-12-19T13:02:14.336Z,32.27
2017-12-19T13:04:41.944Z,31.10
2017-12-19T13:07:09.475Z,31.50
2017-12-19T13:09:37.028Z,31.13
2017-12-19T13:12:04.548Z,34.75
2017-12-19T13:14:32.860Z,29.67
2017-12-19T13:17:00.382Z,29.53
2017-12-19T13:19:27.981Z,28.87
2017-12-19T13:21:56.280Z,28.40
2017-12-19T13:24:23.874Z,29.37
2017-12-19T13:26:51.400Z,27.83
2017-12-19T13:29:19.732Z,26.77
2017-12-19T13:31:47.247Z,25.83
2017-12-19T13:34:15.678Z,26.00
2017-12-19T13:36:44.265Z,25.83
2017-12-19T13:39:12.545Z,25.03
2017-12-19T13:41:40.127Z,25.80
2017-12-19T13:44:08.422Z,25.70
2017-12-19T13:46:36.857Z,29.30
2017-12-19T13:49:04.360Z,26.03
2017-12-19T13:51:31.953Z,30.07
2017-12-19T13:54:00.271Z,30.73
2017-12-19T13:56:27.815Z,27.17
2017-12-19T13:58:56.092Z,26.70
2017-12-19T14:01:23.643Z,31.30
2017-12-19T14:03:51.168Z,27.70
2017-12-19T14:06:18.731Z,24.67
2017-12-19T14:08:47.191Z,29.70
2017-12-19T14:11:15.487Z,27.50
2017-12-19T14:13:43.039Z,25.70
2017-12-19T14:16:10.604Z,22.90
2017-12-19T14:18:38.175Z,26.77
2017-12-19T14:21:05.695Z,27.27
2017-12-19T14:23:34.013Z,22.93
2017-12-19T14:26:01.525Z,27.53
2017-12-19T14:28:29.084Z,23.80
2017-12-19T14:30:56.608Z,22.37
2017-12-19T14:33:24.185Z,23.27
2017-12-19T14:35:51.690Z,23.90
2017-12-19T14:38:19.215Z,24.40
2017-12-19T14:40:47.528Z,21.23
2017-12-19T14:43:15.044Z,23.03
2017-12-19T14:45:42.593Z,24.10
2017-12-19T14:48:10.105Z,24.67
2017-12-19T14:50:37.672Z,29.60
2017-12-19T14:53:05.179Z,25.57
2017-12-19T14:55:32.727Z,24.77
2017-12-19T14:58:00.271Z,25.37
2017-12-19T15:00:27.819Z,22.10
2017-12-19T15:02:55.332Z,22.37
2017-12-19T15:05:22.881Z,24.60
2017-12-19T15:07:50.454Z,24.60
2017-12-19T15:10:18.031Z,22.87
2017-12-19T15:12:45.560Z,21.90
2017-12-19T15:15:13.077Z,22.50
2017-12-19T15:17:40.644Z,23.27
2017-12-19T15:20:08.168Z,23.90
2017-12-19T15:22:35.715Z,22.77
2017-12-19T15:25:03.228Z,23.73
2017-12-19T15:27:30.790Z,25.00
2017-12-19T15:29:58.354Z,22.80
2017-12-19T15:32:26.307Z,22.50
2017-12-19T15:34:53.807Z,20.83
2017-12-19T15:37:22.084Z,22.60
2017-12-19T15:39:50.408Z,23.57
2017-12-19T15:42:17.928Z,24.07
2017-12-19T15:44:45.488Z,23.97
2017-12-19T15:47:13.000Z,25.27
2017-12-19T15:49:40.591Z,25.80
2017-12-19T15:52:08.108Z,24.60
2017-12-19T15:54:35.731Z,24.30
2017-12-19T15:57:03.252Z,27.20
2017-12-19T15:59:30.814Z,23.53
2017-12-19T16:01:58.352Z,25.87
2017-12-19T16:04:25.882Z,25.57
2017-12-19T16:06:53.439Z,24.60
2017-12-19T16:09:20.961Z,26.33
2017-12-19T16:11:48.518Z,25.43
2017-12-19T16:14:16.032Z,26.53
2017-12-19T16:16:43.588Z,26.27
2017-12-19T16:19:11.097Z,24.27
2017-12-19T16:21:38.652Z,27.17
2017-12-19T16:24:06.205Z,27.70
2017-12-19T16:26:33.815Z,25.30
2017-12-19T16:29:01.343Z,24.43
2017-12-19T16:31:28.866Z,28.37
2017-12-19T16:33:56.480Z,25.00
2017-12-19T16:36:24.171Z,26.43
2017-12-19T16:38:51.743Z,26.93
2017-12-19T16:41:19.300Z,27.50
2017-12-19T16:43:46.880Z,26.50
2017-12-19T16:46:14.396Z,28.90
2017-12-19T16:48:42.003Z,26.83
2017-12-19T16:51:09.540Z,25.00
2017-12-19T16:53:37.163Z,25.60
2017-12-19T16:56:04.769Z,26.63
2017-12-19T16:58:32.343Z,22.87
2017-12-19T17:00:59.855Z,20.80
2017-12-19T17:03:27.439Z,21.93
2017-12-19T17:05:55.768Z,23.20
2017-12-19T17:08:23.293Z,25.40
2017-12-19T17:10:50.848Z,22.03
2017-12-19T17:13:18.368Z,21.43
2017-12-19T17:15:45.924Z,21.30
2017-12-19T17:18:14.238Z,22.60
2017-12-19T17:20:41.802Z,21.73
2017-12-19T17:23:09.312Z,23.10
2017-12-19T17:25:37.163Z,23.77
2017-12-19T17:28:04.696Z,24.00
2017-12-19T17:30:32.315Z,22.73
2017-12-19T17:32:59.881Z,24.77
2017-12-19T17:35:27.403Z,21.57
2017-12-19T17:37:54.959Z,24.70
2017-12-19T17:40:22.525Z,24.87
2017-12-19T17:42:50.188Z,22.30
2017-12-19T17:45:17.729Z,24.77
2017-12-19T17:47:45.280Z,21.70
2017-12-19T17:50:12.784Z,22.80
2017-12-19T17:52:40.361Z,22.97
2017-12-19T17:55:07.876Z,21.50
2017-12-19T17:57:35.376Z,21.40
2017-12-19T18:00:02.967Z,24.00
2017-12-19T18:02:30.523Z,21.50
2017-12-19T18:04:58.851Z,21.83
2017-12-19T18:07:26.369Z,21.70
2017-12-19T18:09:53.928Z,22.27
2017-12-19T18:12:21.551Z,19.80
2017-12-19T18:14:49.132Z,21.30
2017-12-19T18:17:16.656Z,22.67
2017-12-19T18:19:44.175Z,22.03
2017-12-19T18:22:11.732Z,22.23
2017-12-19T18:24:39.248Z,20.80
2017-12-19T18:27:06.806Z,16.17
2017-12-19T18:29:35.784Z,18.20
2017-12-19T18:32:03.345Z,17.00
2017-12-19T18:34:31.623Z,20.10
2017-12-19T18:36:59.948Z,19.70
2017-12-19T18:39:27.479Z,20.40
2017-12-19T18:41:55.057Z,23.77
2017-12-19T18:44:23.341Z,21.10
2017-12-19T18:46:51.624Z,23.20
2017-12-19T18:49:19.195Z,21.27
2017-12-19T18:51:46.712Z,21.37
2017-12-19T18:54:14.323Z,20.40
2017-12-19T18:56:42.609Z,19.80
2017-12-19T18:59:10.164Z,20.30
2017-12-19T19:01:37.672Z,23.27
2017-12-19T19:04:05.228Z,24.17
2017-12-19T19:06:32.746Z,23.17
2017-12-19T19:09:00.315Z,21.43
2017-12-19T19:11:28.600Z,24.30
2017-12-19T19:13:56.883Z,23.10
2017-12-19T19:16:25.216Z,23.23
2017-12-19T19:18:52.735Z,25.53
2017-12-19T19:21:20.313Z,23.93
2017-12-19T19:23:48.613Z,25.57
2017-12-19T19:26:16.949Z,28.43
2017-12-19T19:28:44.464Z,28.17
2017-12-19T19:31:12.800Z,28.90
2017-12-19T19:33:40.334Z,29.77
2017-12-19T19:36:07.963Z,30.80
2017-12-19T19:38:35.504Z,31.73
2017-12-19T19:41:03.064Z,33.90
2017-12-19T19:43:31.354Z,32.70
2017-12-19T19:45:58.953Z,30.50
2017-12-19T19:48:26.468Z,30.63
2017-12-19T19:50:54.004Z,30.10
2017-12-19T19:53:21.562Z,27.20
2017-12-19T19:55:49.141Z,26.47
2017-12-19T19:58:16.713Z,24.97
2017-12-19T20:00:44.244Z,25.97
2017-12-19T20:03:11.809Z,26.97
2017-12-19T20:05:39.349Z,26.30
2017-12-19T20:08:06.911Z,25.60
2017-12-19T20:10:34.452Z,24.40
2017-12-19T20:13:02.024Z,24.20
2017-12-19T20:15:29.612Z,24.50
2017-12-19T20:17:57.131Z,23.23
2017-12-19T20:20:24.712Z,23.67
2017-12-19T20:22:52.223Z,21.80
2017-12-19T20:25:19.796Z,21.43
2017-12-19T20:27:47.318Z,23.17
2017-12-19T20:30:14.898Z,23.93
2017-12-19T20:32:43.752Z,22.33
2017-12-19T20:35:11.284Z,21.80
2017-12-19T20:37:39.620Z,23.90
2017-12-19T20:40:07.132Z,20.87
2017-12-19T20:42:34.696Z,22.93
2017-12-19T20:45:02.222Z,24.00
2017-12-19T20:47:29.803Z,23.17
2017-12-19T20:49:57.321Z,24.20
2017-12-19T20:52:24.886Z,25.90
2017-12-19T20:54:52.430Z,22.97
2017-12-19T20:57:20.036Z,23.23
2017-12-19T20:59:47.590Z,20.43
2017-12-19T21:02:15.117Z,24.83
2017-12-19T21:04:43.461Z,24.37
2017-12-19T21:07:10.968Z,25.10
2017-12-19T21:09:39.292Z,26.07
2017-12-19T21:12:06.811Z,27.03
2017-12-19T21:14:34.368Z,24.53
2017-12-19T21:17:01.896Z,23.10
2017-12-19T21:19:29.455Z,25.03
2017-12-19T21:21:57.750Z,25.00
2017-12-19T21:24:25.378Z,24.53
2017-12-19T21:26:52.892Z,21.90
2017-12-19T21:29:20.408Z,22.83
2017-12-19T21:31:47.962Z,22.90
2017-12-19T21:34:15.477Z,24.43
2017-12-19T21:36:43.037Z,24.07
2017-12-19T21:39:11.324Z,26.17
2017-12-19T21:41:38.881Z,24.73
2017-12-19T21:44:06.405Z,24.83
2017-12-19T21:46:34.736Z,23.27
2017-12-19T21:49:02.252Z,25.10
2017-12-19T21:51:29.824Z,22.17
2017-12-19T21:53:57.355Z,23.17
2017-12-19T21:56:24.864Z,21.43
2017-12-19T21:58:52.419Z,18.60
2017-12-19T22:01:19.935Z,19.37
2017-12-19T22:03:47.496Z,19.67
2017-12-19T22:06:15.777Z,20.37
2017-12-19T22:08:43.354Z,19.70
2017-12-19T22:11:11.637Z,20.30
2017-12-19T22:13:39.197Z,20.47
2017-12-19T22:16:06.716Z,20.00
2017-12-19T22:18:34.280Z,20.00
2017-12-19T22:21:01.800Z,20.10
2017-12-19T22:23:29.375Z,19.37
2017-12-19T22:25:56.897Z,19.53
2017-12-19T22:28:24.436Z,20.63
2017-12-19T22:30:51.992Z,21.03
2017-12-19T22:33:19.514Z,22.20
2017-12-19T22:35:47.064Z,23.87
2017-12-19T22:38:15.351Z,21.37
2017-12-19T22:40:43.686Z,22.27
2017-12-19T22:43:11.202Z,21.50
2017-12-19T22:45:38.760Z,21.13
2017-12-19T22:48:06.271Z,20.00
2017-12-19T22:50:34.596Z,19.83
2017-12-19T22:53:02.112Z,20.27
2017-12-19T22:55:29.631Z,21.27
2017-12-19T22:57:57.183Z,19.70
2017-12-19T23:00:24.704Z,19.43
2017-12-19T23:02:52.280Z,21.60
2017-12-19T23:05:20.024Z,20.33
2017-12-19T23:07:47.579Z,18.33
2017-12-19T23:10:15.099Z,21.07
2017-12-19T23:12:42.675Z,19.77
2017-12-19T23:15:10.180Z,19.47
2017-12-19T23:17:38.464Z,19.20
2017-12-19T23:20:06.784Z,18.40
2017-12-19T23:22:34.287Z,21.37
2017-12-19T23:25:01.837Z,20.57
2017-12-19T23:27:29.348Z,22.20
2017-12-19T23:29:56.905Z,21.83
2017-12-19T23:32:24.429Z,21.80
2017-12-19T23:34:51.975Z,22.50
2017-12-19T23:37:19.492Z,22.80
2017-12-19T23:39:47.048Z,23.67
2017-12-19T23:42:14.559Z,25.00
2017-12-19T23:44:42.128Z,24.57
2017-12-19T23:47:09.639Z,24.47
2017-12-19T23:49:37.151Z,25.20
2017-12-19T23:52:04.717Z,22.77
2017-12-19T23:54:32.231Z,24.67
2017-12-19T23:57:00.576Z,26.17
2017-12-19T23:59:28.104Z,26.87
